Time;durP1;ratioP1;P1;durP2;ratioP2;P2;SDS_P1;SDS_P2;PMS_P1;PMS_P2;Temp;Humidity;BMP_temperature;BMP_pressure;BME280_temperature;BME280_humidity;BME280_pressure;Samples;Min_cycle;Max_cycle;Signal;HPM_P1;HPM_P2
2021/07/16 00:02:22;;;;;;;3.85;3.22;;;;;;;;;;5031548;28;20033;-68
2021/07/16 00:04:48;;;;;;;5.45;3.30;;;;;;;;;;5032052;28;20190;-69
2021/07/16 00:07:14;;;;;;;6.63;3.47;;;;;;;;;;5032285;28;20028;-68
2021/07/16 00:09:41;;;;;;;3.83;3.33;;;;;;;;;;5035651;28;20108;-68
2021/07/16 00:12:07;;;;;;;5.15;3.50;;;;;;;;;;5048285;28;20036;-68
2021/07/16 00:14:33;;;;;;;4.47;3.38;;;;;;;;;;5032838;28;20108;-68
2021/07/16 00:17:00;;;;;;;4.18;3.22;;;;;;;;;;5031806;28;20032;-68
2021/07/16 00:19:26;;;;;;;5.57;3.80;;;;;;;;;;5031387;28;20514;-68
2021/07/16 00:21:52;;;;;;;6.05;3.30;;;;;;;;;;5031696;28;20040;-67
2021/07/16 00:24:19;;;;;;;6.32;3.60;;;;;;;;;;5031642;28;20034;-67
2021/07/16 00:26:46;;;;;;;6.80;3.47;;;;;;;;;;5031691;28;20037;-67
2021/07/16 00:29:12;;;;;;;4.30;3.90;;;;;;;;;;5031909;28;20056;-66
2021/07/16 00:31:40;;;;;;;3.60;3.28;;;;;;;;;;5031510;28;20041;-67
2021/07/16 00:34:06;;;;;;;3.80;3.33;;;;;;;;;;5031256;28;20044;-67
2021/07/16 00:36:32;;;;;;;4.57;3.35;;;;;;;;;;5031305;28;20033;-66
2021/07/16 00:38:58;;;;;;;6.03;3.58;;;;;;;;;;5031566;28;20562;-66
2021/07/16 00:41:24;;;;;;;5.38;3.55;;;;;;;;;;5031585;28;20021;-66
2021/07/16 00:43:50;;;;;;;3.60;3.25;;;;;;;;;;5015369;28;20045;-65
2021/07/16 00:46:17;;;;;;;4.47;3.50;;;;;;;;;;5014151;28;20033;-68
2021/07/16 00:48:43;;;;;;;8.43;3.55;;;;;;;;;;5015689;28;20026;-67
2021/07/16 00:51:10;;;;;;;4.40;3.65;;;;;;;;;;5015540;28;20045;-68
2021/07/16 00:53:38;;;;;;;6.15;3.53;;;;;;;;;;5015554;28;20056;-67
2021/07/16 00:56:04;;;;;;;5.15;3.65;;;;;;;;;;5015697;28;20014;-67
2021/07/16 00:58:30;;;;;;;5.85;3.40;;;;;;;;;;5015274;28;20022;-67
2021/07/16 01:00:56;;;;;;;5.32;3.58;;;;;;;;;;5015795;28;20018;-66
2021/07/16 01:03:23;;;;;;;5.18;4.05;;;;;;;;;;5015409;28;20037;-68
2021/07/16 01:05:49;;;;;;;5.45;3.70;;;;;;;;;;5015457;28;20026;-66
2021/07/16 01:08:15;;;;;;;4.93;4.00;;;;;;;;;;5015302;28;20018;-67
2021/07/16 01:10:41;;;;;;;4.70;3.55;;;;;;;;;;5015345;28;20060;-67
2021/07/16 01:13:13;;;;;;;6.25;3.65;;;;;;;;;;5014956;28;20026;-68
2021/07/16 01:15:39;;;;;;;10.27;4.60;;;;;;;;;;5015273;28;20384;-67
2021/07/16 01:18:05;;;;;;;6.32;3.60;;;;;;;;;;5013844;28;20018;-67
2021/07/16 01:20:32;;;;;;;5.80;3.67;;;;;;;;;;5015212;28;20018;-68
2021/07/16 01:22:59;;;;;;;7.22;3.85;;;;;;;;;;5015118;28;20026;-67
2021/07/16 01:25:27;;;;;;;6.63;3.90;;;;;;;;;;5015052;28;20030;-67
2021/07/16 01:27:56;;;;;;;6.60;3.83;;;;;;;;;;5015188;28;20057;-68
2021/07/16 01:30:24;;;;;;;5.22;3.97;;;;;;;;;;5015140;28;20021;-67
2021/07/16 01:32:50;;;;;;;4.90;3.83;;;;;;;;;;5014814;28;20018;-67
2021/07/16 01:35:17;;;;;;;6.70;4.28;;;;;;;;;;5014618;28;20034;-67
2021/07/16 01:37:44;;;;;;;5.65;3.92;;;;;;;;;;5015013;28;20034;-68
2021/07/16 01:40:11;;;;;;;6.03;4.10;;;;;;;;;;5014369;28;20385;-67
2021/07/16 01:42:38;;;;;;;9.05;4.95;;;;;;;;;;5015444;28;20049;-67
2021/07/16 01:45:06;;;;;;;6.53;4.05;;;;;;;;;;5014923;28;20109;-68
2021/07/16 01:47:32;;;;;;;7.50;4.20;;;;;;;;;;5014547;28;20106;-67
2021/07/16 01:49:59;;;;;;;5.80;4.30;;;;;;;;;;5014485;28;20033;-67
2021/07/16 01:52:25;;;;;;;6.20;4.57;;;;;;;;;;5013112;28;20030;-68
2021/07/16 01:54:51;;;;;;;5.95;4.00;;;;;;;;;;5014616;28;20029;-67
2021/07/16 01:57:17;;;;;;;9.57;4.68;;;;;;;;;;5013268;28;20026;-67
2021/07/16 01:59:43;;;;;;;8.10;4.90;;;;;;;;;;5014311;28;20469;-67
2021/07/16 02:02:09;;;;;;;7.78;4.32;;;;;;;;;;5014567;28;20030;-68
2021/07/16 02:04:35;;;;;;;5.97;4.25;;;;;;;;;;5014322;28;20037;-67
2021/07/16 02:07:02;;;;;;;7.65;5.00;;;;;;;;;;5014394;28;20438;-67
2021/07/16 02:09:28;;;;;;;7.00;5.30;;;;;;;;;;5014256;28;20081;-67
2021/07/16 02:11:57;;;;;;;8.50;4.78;;;;;;;;;;5014044;28;20022;-67
2021/07/16 02:14:24;;;;;;;7.78;4.63;;;;;;;;;;5014391;28;20045;-67
2021/07/16 02:16:50;;;;;;;8.27;4.63;;;;;;;;;;5012622;28;20025;-67
2021/07/16 02:19:16;;;;;;;7.40;4.63;;;;;;;;;;5014282;28;20018;-67
2021/07/16 02:21:42;;;;;;;7.93;4.43;;;;;;;;;;5013882;28;20480;-68
2021/07/16 02:24:08;;;;;;;6.75;4.35;;;;;;;;;;5013729;28;20057;-68
2021/07/16 02:26:37;;;;;;;6.88;4.72;;;;;;;;;;5013917;28;20032;-67
2021/07/16 02:29:05;;;;;;;6.10;4.40;;;;;;;;;;5014001;28;20022;-67
2021/07/16 02:31:31;;;;;;;7.18;4.50;;;;;;;;;;5013646;28;20054;-67
2021/07/16 02:33:57;;;;;;;9.30;4.60;;;;;;;;;;5014044;28;20021;-67
2021/07/16 02:36:23;;;;;;;7.18;4.35;;;;;;;;;;5013468;28;20029;-67
2021/07/16 02:38:50;;;;;;;8.25;4.75;;;;;;;;;;5013562;28;20439;-67
2021/07/16 02:41:16;;;;;;;6.93;4.82;;;;;;;;;;5013660;28;20033;-67
2021/07/16 02:43:42;;;;;;;8.98;4.90;;;;;;;;;;5013665;28;20025;-67
2021/07/16 02:46:09;;;;;;;5.57;4.40;;;;;;;;;;5014675;28;20532;-67
2021/07/16 02:48:35;;;;;;;8.65;4.85;;;;;;;;;;5013515;28;20026;-67
2021/07/16 02:51:01;;;;;;;6.60;4.55;;;;;;;;;;5013402;28;20029;-67
2021/07/16 02:53:27;;;;;;;8.25;4.65;;;;;;;;;;5013268;28;20029;-67
2021/07/16 02:55:53;;;;;;;7.45;4.60;;;;;;;;;;5013216;28;20021;-67
2021/07/16 02:58:20;;;;;;;6.53;4.95;;;;;;;;;;5012141;28;20109;-67
2021/07/16 03:00:46;;;;;;;8.70;4.43;;;;;;;;;;5013179;28;20380;-67
2021/07/16 03:03:12;;;;;;;8.27;5.03;;;;;;;;;;5013449;28;20026;-68
2021/07/16 03:05:39;;;;;;;7.18;4.28;;;;;;;;;;5013153;28;20032;-68
2021/07/16 03:08:09;;;;;;;7.57;4.60;;;;;;;;;;5012839;28;20026;-68
2021/07/16 03:10:40;;;;;;;10.38;4.32;;;;;;;;;;5013092;28;20026;-67
2021/07/16 03:13:07;;;;;;;6.40;3.97;;;;;;;;;;5013023;28;20063;-67
2021/07/16 03:15:35;;;;;;;7.75;5.10;;;;;;;;;;5013028;28;20021;-67
2021/07/16 03:18:01;;;;;;;5.90;4.20;;;;;;;;;;5013288;28;20362;-67
2021/07/16 03:20:28;;;;;;;5.65;4.18;;;;;;;;;;5012980;28;20093;-68
2021/07/16 03:22:55;;;;;;;6.65;4.07;;;;;;;;;;5012875;28;20496;-68
2021/07/16 03:25:21;;;;;;;6.40;4.13;;;;;;;;;;5012896;28;20069;-67
2021/07/16 03:27:48;;;;;;;6.93;4.13;;;;;;;;;;5012928;28;20033;-67
2021/07/16 03:30:19;;;;;;;6.75;4.70;;;;;;;;;;5012829;28;20128;-68
2021/07/16 03:32:45;;;;;;;6.88;4.97;;;;;;;;;;5012750;28;20034;-67
2021/07/16 03:35:12;;;;;;;6.10;4.22;;;;;;;;;;5012639;28;20033;-67
2021/07/16 03:37:38;;;;;;;7.75;4.25;;;;;;;;;;5012702;28;20029;-67
2021/07/16 03:40:06;;;;;;;6.55;4.30;;;;;;;;;;5012642;28;20037;-68
2021/07/16 03:42:32;;;;;;;9.02;4.88;;;;;;;;;;5012768;28;20109;-67
2021/07/16 03:45:01;;;;;;;6.90;4.40;;;;;;;;;;5012577;28;20041;-67
2021/07/16 03:47:27;;;;;;;5.22;4.40;;;;;;;;;;5012759;28;20026;-67
2021/07/16 03:49:53;;;;;;;6.70;4.57;;;;;;;;;;5012686;28;20025;-67
2021/07/16 03:52:21;;;;;;;7.00;5.20;;;;;;;;;;5012776;28;20058;-67
2021/07/16 03:54:47;;;;;;;6.85;4.75;;;;;;;;;;5012752;28;20025;-68
2021/07/16 03:57:13;;;;;;;8.32;4.97;;;;;;;;;;5012922;28;20025;-67
2021/07/16 03:59:39;;;;;;;5.47;4.43;;;;;;;;;;5014100;28;20492;-67
2021/07/16 04:02:06;;;;;;;6.20;4.47;;;;;;;;;;5012838;28;20460;-67
2021/07/16 04:04:33;;;;;;;7.10;4.40;;;;;;;;;;5012948;28;20034;-67
2021/07/16 04:06:59;;;;;;;6.00;4.85;;;;;;;;;;5013339;28;20529;-66
2021/07/16 04:09:34;;;;;;;6.93;4.80;;;;;;;;;;5026285;28;20022;-68
2021/07/16 04:12:09;;;;;;;5.45;4.00;;;;;;;;;;5012611;28;20026;-67
2021/07/16 04:14:40;;;;;;;4.75;3.65;;;;;;;;;;5012514;28;20029;-67
2021/07/16 04:17:10;;;;;;;6.05;4.05;;;;;;;;;;5012474;28;20026;-68
2021/07/16 04:19:37;;;;;;;5.82;3.80;;;;;;;;;;5012285;28;20092;-67
2021/07/16 04:22:04;;;;;;;6.55;3.83;;;;;;;;;;5015854;28;20032;-67
2021/07/16 04:24:30;;;;;;;7.07;4.03;;;;;;;;;;5016191;28;20044;-67
2021/07/16 04:26:56;;;;;;;6.80;3.70;;;;;;;;;;5016150;28;20026;-67
2021/07/16 04:29:22;;;;;;;7.85;3.65;;;;;;;;;;5016223;28;20118;-67
2021/07/16 04:31:48;;;;;;;5.85;3.85;;;;;;;;;;5016015;28;20061;-67
2021/07/16 04:34:14;;;;;;;4.78;4.05;;;;;;;;;;5015796;28;20465;-69
2021/07/16 04:36:41;;;;;;;4.60;3.78;;;;;;;;;;5015925;28;20113;-68
2021/07/16 04:39:07;;;;;;;6.80;3.90;;;;;;;;;;5015742;28;20041;-67
2021/07/16 04:41:33;;;;;;;6.80;4.13;;;;;;;;;;5015787;28;20036;-67
2021/07/16 04:43:59;;;;;;;6.88;3.60;;;;;;;;;;5015833;28;20481;-67
2021/07/16 04:46:25;;;;;;;5.78;3.50;;;;;;;;;;5016018;28;20057;-67
2021/07/16 04:48:57;;;;;;;7.75;4.80;;;;;;;;;;5015605;28;20476;-68
2021/07/16 04:51:33;;;;;;;5.80;3.63;;;;;;;;;;5015734;28;20439;-67
2021/07/16 04:53:59;;;;;;;7.47;3.67;;;;;;;;;;5015658;28;20392;-67
2021/07/16 04:56:26;;;;;;;7.28;3.63;;;;;;;;;;5015633;28;20033;-67
2021/07/16 04:58:52;;;;;;;7.97;3.72;;;;;;;;;;5016016;28;20036;-67
2021/07/16 05:01:21;;;;;;;4.50;3.40;;;;;;;;;;5015747;28;20036;-68
2021/07/16 05:03:47;;;;;;;4.70;3.90;;;;;;;;;;5015366;28;20061;-67
2021/07/16 05:06:13;;;;;;;6.65;3.50;;;;;;;;;;5015323;28;20026;-67
2021/07/16 05:08:40;;;;;;;7.53;4.30;;;;;;;;;;5015669;28;20029;-68
2021/07/16 05:11:07;;;;;;;5.22;3.05;;;;;;;;;;5015367;28;20392;-68
2021/07/16 05:13:37;;;;;;;4.28;3.38;;;;;;;;;;5015962;28;20101;-65
2021/07/16 05:16:03;;;;;;;3.95;3.25;;;;;;;;;;5015279;28;20488;-68
2021/07/16 05:18:29;;;;;;;6.68;4.03;;;;;;;;;;5015438;28;20037;-68
2021/07/16 05:20:56;;;;;;;5.53;3.35;;;;;;;;;;5015148;28;20106;-67
2021/07/16 05:23:22;;;;;;;5.40;3.90;;;;;;;;;;5014935;28;20030;-65
2021/07/16 05:25:48;;;;;;;7.07;3.50;;;;;;;;;;5015090;28;20037;-66
2021/07/16 05:28:14;;;;;;;7.00;3.65;;;;;;;;;;5015009;28;20037;-68
2021/07/16 05:30:40;;;;;;;7.53;4.03;;;;;;;;;;5014959;28;20030;-68
2021/07/16 05:33:06;;;;;;;5.15;3.25;;;;;;;;;;5014503;28;20030;-67
2021/07/16 05:35:32;;;;;;;4.93;4.47;;;;;;;;;;5014859;28;20052;-68
2021/07/16 05:37:59;;;;;;;5.82;3.35;;;;;;;;;;5014782;28;20030;-67
2021/07/16 05:40:26;;;;;;;6.95;3.88;;;;;;;;;;5014524;28;20042;-68
2021/07/16 05:42:52;;;;;;;5.40;3.75;;;;;;;;;;5014735;28;20026;-67
2021/07/16 05:45:18;;;;;;;5.13;3.88;;;;;;;;;;5014593;28;20054;-67
2021/07/16 05:47:44;;;;;;;5.78;3.80;;;;;;;;;;5014522;28;20236;-67
2021/07/16 05:50:10;;;;;;;5.60;3.80;;;;;;;;;;5014483;28;20026;-66
2021/07/16 05:52:36;;;;;;;5.40;3.38;;;;;;;;;;5014450;28;20442;-67
2021/07/16 05:55:04;;;;;;;4.35;3.30;;;;;;;;;;5014427;28;20022;-68
2021/07/16 05:57:31;;;;;;;5.32;3.47;;;;;;;;;;5031780;28;20078;-67
2021/07/16 05:59:57;;;;;;;4.78;3.70;;;;;;;;;;5033564;28;20041;-68
2021/07/16 06:02:23;;;;;;;4.75;3.47;;;;;;;;;;5033990;28;20022;-67
2021/07/16 06:04:49;;;;;;;4.82;3.38;;;;;;;;;;5034245;28;20417;-68
2021/07/16 06:07:15;;;;;;;3.63;3.00;;;;;;;;;;5034059;28;20431;-68
2021/07/16 06:09:42;;;;;;;4.60;3.60;;;;;;;;;;5033587;28;20033;-67
2021/07/16 06:12:08;;;;;;;4.53;3.35;;;;;;;;;;5033257;28;20076;-67
2021/07/16 06:14:34;;;;;;;5.00;3.60;;;;;;;;;;5033175;28;20022;-68
2021/07/16 06:17:00;;;;;;;7.38;3.72;;;;;;;;;;5032432;28;20639;-65
2021/07/16 06:19:26;;;;;;;4.60;4.00;;;;;;;;;;5033395;28;20057;-65
2021/07/16 06:21:52;;;;;;;6.43;4.03;;;;;;;;;;5034055;28;20037;-68
2021/07/16 06:24:19;;;;;;;6.28;4.05;;;;;;;;;;5033354;28;20025;-68
2021/07/16 06:26:45;;;;;;;5.88;3.92;;;;;;;;;;5033494;28;20104;-68
2021/07/16 06:29:11;;;;;;;6.75;3.80;;;;;;;;;;5025190;28;20033;-70
2021/07/16 06:31:37;;;;;;;5.65;3.50;;;;;;;;;;5028345;28;20064;-68
2021/07/16 06:34:03;;;;;;;5.68;3.95;;;;;;;;;;5028657;28;20488;-69
2021/07/16 06:36:29;;;;;;;7.43;3.92;;;;;;;;;;5037310;28;20034;-69
2021/07/16 06:38:56;;;;;;;5.55;3.60;;;;;;;;;;5029114;28;20530;-68
2021/07/16 06:41:22;;;;;;;4.88;3.95;;;;;;;;;;5029396;28;20065;-69
2021/07/16 06:43:48;;;;;;;7.00;3.80;;;;;;;;;;5022879;28;20029;-68
2021/07/16 06:46:14;;;;;;;6.95;4.00;;;;;;;;;;5019007;28;20025;-66
2021/07/16 06:48:43;;;;;;;5.28;3.72;;;;;;;;;;5025954;28;20128;-68
2021/07/16 06:51:09;;;;;;;5.13;3.72;;;;;;;;;;5020777;28;20455;-68
2021/07/16 06:53:35;;;;;;;5.45;3.38;;;;;;;;;;5019977;28;20034;-68
2021/07/16 06:56:01;;;;;;;4.68;3.58;;;;;;;;;;5021783;28;20030;-69
2021/07/16 06:58:27;;;;;;;5.90;3.70;;;;;;;;;;5021709;28;20040;-69
2021/07/16 07:00:54;;;;;;;4.70;3.55;;;;;;;;;;5014871;28;20380;-69
2021/07/16 07:03:25;;;;;;;5.72;3.65;;;;;;;;;;5020384;28;20029;-70
2021/07/16 07:05:51;;;;;;;6.60;3.45;;;;;;;;;;5022022;28;20029;-68
2021/07/16 07:08:17;;;;;;;4.45;4.03;;;;;;;;;;5009809;28;20133;-69
2021/07/16 07:10:43;;;;;;;4.63;3.80;;;;;;;;;;5009063;28;20117;-68
2021/07/16 07:13:10;;;;;;;5.25;3.70;;;;;;;;;;4998451;28;20034;-69
2021/07/16 07:15:36;;;;;;;6.28;3.72;;;;;;;;;;5014001;28;20072;-69
2021/07/16 07:18:06;;;;;;;5.03;3.55;;;;;;;;;;5013798;28;20113;-68
2021/07/16 07:20:33;;;;;;;5.82;4.05;;;;;;;;;;5016268;28;20029;-68
2021/07/16 07:23:00;;;;;;;6.13;4.00;;;;;;;;;;5011643;28;20423;-68
2021/07/16 07:25:26;;;;;;;7.32;4.18;;;;;;;;;;5023185;28;20144;-68
2021/07/16 07:27:52;;;;;;;5.10;4.10;;;;;;;;;;5017980;28;20060;-69
2021/07/16 07:30:19;;;;;;;6.03;3.88;;;;;;;;;;5025963;28;20507;-70
2021/07/16 07:32:45;;;;;;;5.80;3.67;;;;;;;;;;5015748;28;20080;-69
2021/07/16 07:35:12;;;;;;;6.00;3.50;;;;;;;;;;5020901;28;20049;-68
2021/07/16 07:37:38;;;;;;;8.02;4.95;;;;;;;;;;5017276;28;20108;-69
2021/07/16 07:40:05;;;;;;;5.32;3.83;;;;;;;;;;5005980;28;20044;-70
2021/07/16 07:42:32;;;;;;;6.95;3.75;;;;;;;;;;5021344;28;20029;-69
2021/07/16 07:44:58;;;;;;;6.10;3.95;;;;;;;;;;5031068;28;20496;-69
2021/07/16 07:47:26;;;;;;;4.68;3.85;;;;;;;;;;5030218;28;20041;-69
2021/07/16 07:49:53;;;;;;;5.00;3.80;;;;;;;;;;5027505;28;20037;-68
2021/07/16 07:52:21;;;;;;;5.43;3.85;;;;;;;;;;5022872;28;20661;-67
2021/07/16 07:54:47;;;;;;;5.75;4.03;;;;;;;;;;5020087;28;20109;-67
2021/07/16 07:57:13;;;;;;;5.60;3.65;;;;;;;;;;5019702;28;20083;-67
2021/07/16 07:59:40;;;;;;;4.55;3.67;;;;;;;;;;5022663;28;20037;-68
2021/07/16 08:02:09;;;;;;;5.38;3.40;;;;;;;;;;5030569;28;20036;-68
2021/07/16 08:04:38;;;;;;;4.22;3.38;;;;;;;;;;5005195;28;20491;-67
2021/07/16 08:07:05;;;;;;;5.07;3.55;;;;;;;;;;5014689;28;20036;-67
2021/07/16 08:09:32;;;;;;;5.07;3.00;;;;;;;;;;5016725;28;20172;-63
2021/07/16 08:11:58;;;;;;;4.80;3.25;;;;;;;;;;5016414;28;20117;-70
2021/07/16 08:14:24;;;;;;;4.25;3.58;;;;;;;;;;4998677;28;20618;-68
2021/07/16 08:16:50;;;;;;;4.60;3.15;;;;;;;;;;5012832;28;20033;-66
2021/07/16 08:19:19;;;;;;;6.63;3.47;;;;;;;;;;5030326;28;20041;-68
2021/07/16 08:21:49;;;;;;;4.05;3.10;;;;;;;;;;5014657;28;20040;-68
2021/07/16 08:24:15;;;;;;;4.25;3.20;;;;;;;;;;5021253;28;20025;-68
2021/07/16 08:26:42;;;;;;;6.25;3.10;;;;;;;;;;5018213;28;20053;-67
2021/07/16 08:29:09;;;;;;;5.82;3.88;;;;;;;;;;5011926;28;20030;-66
2021/07/16 08:31:36;;;;;;;4.05;3.42;;;;;;;;;;5026550;28;20072;-66
2021/07/16 08:34:02;;;;;;;3.83;3.05;;;;;;;;;;5023059;28;20570;-70
2021/07/16 08:36:31;;;;;;;5.55;3.25;;;;;;;;;;5027350;28;20033;-67
2021/07/16 08:38:58;;;;;;;5.80;3.05;;;;;;;;;;5028855;28;20068;-66
2021/07/16 08:41:24;;;;;;;4.57;3.03;;;;;;;;;;5023956;28;20086;-67
2021/07/16 08:43:51;;;;;;;3.40;2.97;;;;;;;;;;5021914;28;20099;-68
2021/07/16 08:46:18;;;;;;;3.80;2.92;;;;;;;;;;5017004;28;20030;-70
2021/07/16 08:48:47;;;;;;;12.27;3.63;;;;;;;;;;5025225;28;20133;-67
2021/07/16 08:51:14;;;;;;;3.33;3.03;;;;;;;;;;5014570;28;20064;-67
2021/07/16 08:53:41;;;;;;;4.18;3.47;;;;;;;;;;5019883;28;20022;-69
2021/07/16 08:56:08;;;;;;;3.33;2.63;;;;;;;;;;5015076;28;20030;-69
2021/07/16 08:58:34;;;;;;;4.47;2.65;;;;;;;;;;5015654;28;20034;-69
2021/07/16 09:01:00;;;;;;;3.22;2.83;;;;;;;;;;5019880;28;20097;-70
2021/07/16 09:03:28;;;;;;;3.33;2.53;;;;;;;;;;5015002;28;20041;-68
2021/07/16 09:05:54;;;;;;;5.20;2.58;;;;;;;;;;5022261;28;20025;-67
2021/07/16 09:08:21;;;;;;;3.17;2.53;;;;;;;;;;5004405;28;20511;-68
2021/07/16 09:10:49;;;;;;;3.13;2.33;;;;;;;;;;5020972;28;20149;-67
2021/07/16 09:13:15;;;;;;;3.47;2.40;;;;;;;;;;5012673;28;20108;-69
2021/07/16 09:15:49;;;;;;;2.60;2.33;;;;;;;;;;5017385;28;20032;-69
2021/07/16 09:18:15;;;;;;;3.80;2.47;;;;;;;;;;5018492;28;20029;-69
2021/07/16 09:20:42;;;;;;;4.90;2.22;;;;;;;;;;5030205;28;20076;-69
2021/07/16 09:23:16;;;;;;;3.60;2.67;;;;;;;;;;5008333;28;21347;-69
2021/07/16 09:25:43;;;;;;;4.57;2.30;;;;;;;;;;5010602;28;20091;-67
2021/07/16 09:28:25;;;;;;;3.22;2.33;;;;;;;;;;5014773;28;20112;-70
2021/07/16 09:30:51;;;;;;;2.13;1.90;;;;;;;;;;5028967;28;20104;-65
2021/07/16 09:33:18;;;;;;;2.53;2.00;;;;;;;;;;5018379;28;20567;-67
2021/07/16 09:35:44;;;;;;;2.85;2.00;;;;;;;;;;5029768;28;20105;-67
2021/07/16 09:38:12;;;;;;;3.28;1.92;;;;;;;;;;5017863;28;20110;-68
2021/07/16 09:40:46;;;;;;;2.83;2.10;;;;;;;;;;5013074;28;20044;-69
2021/07/16 09:43:17;;;;;;;2.60;2.10;;;;;;;;;;5026233;28;20054;-68
2021/07/16 09:45:44;;;;;;;2.40;2.20;;;;;;;;;;5024724;28;20040;-67
2021/07/16 09:48:20;;;;;;;3.30;1.88;;;;;;;;;;5018222;28;20447;-67
2021/07/16 09:50:47;;;;;;;2.20;1.90;;;;;;;;;;5016222;28;20033;-69
2021/07/16 09:53:19;;;;;;;2.60;1.95;;;;;;;;;;5016234;28;20048;-68
2021/07/16 09:55:45;;;;;;;3.45;1.98;;;;;;;;;;5020336;28;20033;-69
2021/07/16 09:58:27;;;;;;;2.97;2.00;;;;;;;;;;5018718;28;20075;-68
2021/07/16 10:00:54;;;;;;;3.08;2.20;;;;;;;;;;5016977;28;20061;-69
2021/07/16 10:03:21;;;;;;;1.90;1.67;;;;;;;;;;5014514;28;20033;-70
2021/07/16 10:05:50;;;;;;;4.20;1.80;;;;;;;;;;5011877;28;20399;-69
2021/07/16 10:08:17;;;;;;;2.67;1.63;;;;;;;;;;5027200;28;20119;-68
2021/07/16 10:10:44;;;;;;;2.95;1.80;;;;;;;;;;5029066;28;20025;-68
2021/07/16 10:13:10;;;;;;;2.15;1.75;;;;;;;;;;5018608;28;20065;-68
2021/07/16 10:15:37;;;;;;;2.55;2.08;;;;;;;;;;5014878;28;20636;-69
2021/07/16 10:18:06;;;;;;;2.10;1.90;;;;;;;;;;5010633;28;20092;-69
2021/07/16 10:20:35;;;;;;;2.75;2.03;;;;;;;;;;5011879;28;20077;-68
2021/07/16 10:23:01;;;;;;;2.03;1.80;;;;;;;;;;5009954;28;20022;-68
2021/07/16 10:25:27;;;;;;;3.90;2.03;;;;;;;;;;5021990;28;20550;-70
2021/07/16 10:27:53;;;;;;;1.77;1.65;;;;;;;;;;5014138;28;20045;-68
2021/07/16 10:30:20;;;;;;;2.65;1.73;;;;;;;;;;5009505;28;20187;-68
2021/07/16 10:32:47;;;;;;;8.55;2.20;;;;;;;;;;5016316;28;20511;-66
2021/07/16 10:35:14;;;;;;;2.65;1.92;;;;;;;;;;5019897;28;20476;-67
2021/07/16 10:37:40;;;;;;;2.10;1.60;;;;;;;;;;5010084;28;20029;-69
2021/07/16 10:40:07;;;;;;;2.15;1.65;;;;;;;;;;5010244;28;20140;-67
2021/07/16 10:42:36;;;;;;;2.10;1.90;;;;;;;;;;5009280;28;20045;-67
2021/07/16 10:45:04;;;;;;;2.05;1.85;;;;;;;;;;5018567;28;20546;-69
2021/07/16 10:47:47;;;;;;;2.20;1.90;;;;;;;;;;5018619;28;20083;-68
2021/07/16 10:50:15;;;;;;;2.35;1.80;;;;;;;;;;5026636;28;20037;-66
2021/07/16 10:52:44;;;;;;;2.50;2.00;;;;;;;;;;5011220;28;20077;-66
2021/07/16 10:55:10;;;;;;;3.13;1.90;;;;;;;;;;5025819;28;20034;-66
2021/07/16 10:57:44;;;;;;;2.47;2.15;;;;;;;;;;5024256;28;20416;-66
2021/07/16 11:00:13;;;;;;;2.60;2.07;;;;;;;;;;5010527;28;20033;-66
2021/07/16 11:02:43;;;;;;;4.28;2.30;;;;;;;;;;5027833;28;20280;-66
2021/07/16 11:05:28;;;;;;;2.70;2.05;;;;;;;;;;4986196;28;20029;-67
2021/07/16 11:07:54;;;;;;;;;;;;;;;;;;5023999;28;20040;-67
2021/07/16 11:10:39;;;;;;;2.42;2.22;;;;;;;;;;5022721;28;20107;-67
2021/07/16 11:13:23;;;;;;;2.35;1.75;;;;;;;;;;5022728;28;20033;-66
2021/07/16 11:15:49;;;;;;;2.30;2.10;;;;;;;;;;5012817;28;20056;-67
2021/07/16 11:18:28;;;;;;;2.40;1.80;;;;;;;;;;5008975;28;20022;-67
2021/07/16 11:20:54;;;;;;;3.88;1.77;;;;;;;;;;5022816;28;20104;-68
2021/07/16 11:23:21;;;;;;;5.43;2.25;;;;;;;;;;5015222;28;20030;-67
2021/07/16 11:25:47;;;;;;;2.83;1.85;;;;;;;;;;5016999;28;20041;-65
2021/07/16 11:28:14;;;;;;;3.60;1.75;;;;;;;;;;5018209;28;20030;-66
2021/07/16 11:30:43;;;;;;;1.95;1.80;;;;;;;;;;5022735;28;20079;-66
2021/07/16 11:33:11;;;;;;;3.10;1.90;;;;;;;;;;5020800;28;20157;-66
2021/07/16 11:35:37;;;;;;;2.08;1.88;;;;;;;;;;5020009;28;20055;-66
2021/07/16 11:38:07;;;;;;;2.00;1.73;;;;;;;;;;5009091;28;20033;-66
2021/07/16 11:40:34;;;;;;;4.32;1.95;;;;;;;;;;5022928;28;20060;-65
2021/07/16 11:43:01;;;;;;;2.47;2.08;;;;;;;;;;5015059;28;20072;-65
2021/07/16 11:45:27;;;;;;;3.97;2.15;;;;;;;;;;5018125;28;20057;-65
2021/07/16 11:47:55;;;;;;;1.80;1.67;;;;;;;;;;5011499;28;20523;-67
2021/07/16 11:50:21;;;;;;;3.45;2.20;;;;;;;;;;5008469;28;20041;-65
2021/07/16 11:52:49;;;;;;;2.58;2.00;;;;;;;;;;5013705;28;20042;-65
2021/07/16 11:55:15;;;;;;;2.67;1.90;;;;;;;;;;5005631;28;20037;-66
2021/07/16 11:57:48;;;;;;;1.90;1.67;;;;;;;;;;5015678;28;20029;-67
2021/07/16 12:00:14;;;;;;;1.95;1.75;;;;;;;;;;5026650;28;20033;-67
2021/07/16 12:02:40;;;;;;;2.15;1.80;;;;;;;;;;5027547;28;20041;-67
2021/07/16 12:05:06;;;;;;;1.92;1.83;;;;;;;;;;5028942;28;20362;-67
2021/07/16 12:07:40;;;;;;;2.75;1.83;;;;;;;;;;5028499;28;20844;-67
2021/07/16 12:10:10;;;;;;;2.92;2.15;;;;;;;;;;5027971;28;20037;-66
2021/07/16 12:12:37;;;;;;;2.42;2.22;;;;;;;;;;5027515;28;20041;-67
2021/07/16 12:15:07;;;;;;;2.67;2.00;;;;;;;;;;5027608;28;20124;-67
2021/07/16 12:17:40;;;;;;;2.08;1.80;;;;;;;;;;5027838;28;20056;-67
2021/07/16 12:20:08;;;;;;;3.92;1.80;;;;;;;;;;5028012;28;20047;-66
2021/07/16 12:22:35;;;;;;;3.55;2.10;;;;;;;;;;5028241;28;20049;-65
2021/07/16 12:25:01;;;;;;;2.20;1.90;;;;;;;;;;5028679;28;20033;-65
2021/07/16 12:27:28;;;;;;;1.95;1.80;;;;;;;;;;5028793;28;20025;-67
2021/07/16 12:30:04;;;;;;;5.22;1.90;;;;;;;;;;5028807;28;20080;-65
2021/07/16 12:32:31;;;;;;;2.60;1.80;;;;;;;;;;5027738;28;20140;-68
2021/07/16 12:34:57;;;;;;;2.65;1.90;;;;;;;;;;5025583;28;20368;-66
2021/07/16 12:37:23;;;;;;;4.85;1.92;;;;;;;;;;5029495;28;20033;-67
2021/07/16 12:40:00;;;;;;;2.28;1.80;;;;;;;;;;5039443;28;20083;-68
2021/07/16 12:42:26;;;;;;;3.63;2.10;;;;;;;;;;5030544;28;20103;-69
2021/07/16 12:45:12;;;;;;;4.35;2.08;;;;;;;;;;5014215;28;20536;-69
2021/07/16 12:47:51;;;;;;;2.70;2.10;;;;;;;;;;5031070;28;20120;-67
2021/07/16 12:50:19;;;;;;;2.47;1.63;;;;;;;;;;5032033;28;20088;-65
2021/07/16 12:52:54;;;;;;;3.17;2.05;;;;;;;;;;5031843;28;20125;-66
2021/07/16 12:55:21;;;;;;;3.72;2.03;;;;;;;;;;5032252;28;20022;-65
2021/07/16 12:57:47;;;;;;;3.60;1.90;;;;;;;;;;5031604;28;20030;-66
2021/07/16 13:00:18;;;;;;;2.45;2.00;;;;;;;;;;5019027;28;20566;-66
2021/07/16 13:02:45;;;;;;;3.42;2.35;;;;;;;;;;5021407;28;20060;-66
2021/07/16 13:05:11;;;;;;;2.35;1.90;;;;;;;;;;5021762;28;20021;-65
2021/07/16 13:07:38;;;;;;;3.15;1.90;;;;;;;;;;5033157;28;20052;-67
2021/07/16 13:10:21;;;;;;;2.63;2.15;;;;;;;;;;5034490;28;20041;-66
2021/07/16 13:12:47;;;;;;;4.40;2.10;;;;;;;;;;5033871;28;20468;-66
2021/07/16 13:15:13;;;;;;;3.53;2.15;;;;;;;;;;5034931;28;20045;-66
2021/07/16 13:17:39;;;;;;;2.63;2.10;;;;;;;;;;5021852;28;20037;-67
2021/07/16 13:20:10;;;;;;;2.92;1.90;;;;;;;;;;5030733;28;20419;-65
2021/07/16 13:22:40;;;;;;;3.20;2.10;;;;;;;;;;5018192;28;20029;-66
2021/07/16 13:25:20;;;;;;;4.38;2.13;;;;;;;;;;5025741;28;20035;-68
2021/07/16 13:27:48;;;;;;;3.22;1.90;;;;;;;;;;5028980;28;20056;-66
2021/07/16 13:30:14;;;;;;;4.53;2.03;;;;;;;;;;5022802;28;20022;-66
2021/07/16 13:32:42;;;;;;;5.85;2.10;;;;;;;;;;5031166;28;20029;-67
2021/07/16 13:35:08;;;;;;;7.22;2.60;;;;;;;;;;5016519;28;20516;-66
2021/07/16 13:37:35;;;;;;;2.38;1.80;;;;;;;;;;5020484;28;20496;-68
2021/07/16 13:40:02;;;;;;;2.17;1.80;;;;;;;;;;5019434;28;20404;-66
2021/07/16 13:42:29;;;;;;;3.17;2.00;;;;;;;;;;5032975;28;20052;-67
2021/07/16 13:44:56;;;;;;;2.10;1.90;;;;;;;;;;5025586;28;20022;-67
2021/07/16 13:47:23;;;;;;;2.67;2.10;;;;;;;;;;5015799;28;20069;-68
2021/07/16 13:49:49;;;;;;;2.97;2.00;;;;;;;;;;5018405;28;20519;-68
2021/07/16 13:52:15;;;;;;;3.70;1.83;;;;;;;;;;5032505;28;20045;-68
2021/07/16 13:54:41;;;;;;;3.72;2.13;;;;;;;;;;5023500;28;20137;-68
2021/07/16 13:57:07;;;;;;;3.75;1.90;;;;;;;;;;5020157;28;20036;-68
2021/07/16 13:59:33;;;;;;;2.80;1.83;;;;;;;;;;5032396;28;20480;-69
2021/07/16 14:02:00;;;;;;;2.30;1.90;;;;;;;;;;5032051;28;20036;-68
2021/07/16 14:04:26;;;;;;;3.92;2.03;;;;;;;;;;5030622;28;20036;-69
2021/07/16 14:06:52;;;;;;;3.95;2.33;;;;;;;;;;5022169;28;20446;-67
2021/07/16 14:09:18;;;;;;;2.75;2.55;;;;;;;;;;5030084;28;20025;-68
2021/07/16 14:11:44;;;;;;;2.63;2.33;;;;;;;;;;5023303;28;20578;-67
2021/07/16 14:14:10;;;;;;;3.38;2.30;;;;;;;;;;5020888;28;20049;-68
2021/07/16 14:16:36;;;;;;;2.40;1.90;;;;;;;;;;5028446;28;20032;-67
2021/07/16 14:19:03;;;;;;;2.63;1.70;;;;;;;;;;5014741;28;20121;-67
2021/07/16 14:21:29;;;;;;;4.43;1.90;;;;;;;;;;5021640;28;20484;-68
2021/07/16 14:24:05;;;;;;;4.85;2.58;;;;;;;;;;5023521;28;20029;-67
2021/07/16 14:26:32;;;;;;;3.03;1.80;;;;;;;;;;5021995;28;20021;-68
2021/07/16 14:28:58;;;;;;;2.40;2.00;;;;;;;;;;5032125;28;20025;-68
2021/07/16 14:31:24;;;;;;;2.95;1.98;;;;;;;;;;5022700;28;20124;-68
2021/07/16 14:33:51;;;;;;;4.50;2.38;;;;;;;;;;5023739;28;20034;-68
2021/07/16 14:36:17;;;;;;;2.30;1.80;;;;;;;;;;5021538;28;20445;-68
2021/07/16 14:38:43;;;;;;;2.00;1.80;;;;;;;;;;5031425;28;20044;-68
2021/07/16 14:41:14;;;;;;;3.00;1.83;;;;;;;;;;5024334;28;20515;-68
2021/07/16 14:43:41;;;;;;;3.83;1.70;;;;;;;;;;5022458;28;20112;-69
2021/07/16 14:46:07;;;;;;;3.15;1.83;;;;;;;;;;5026209;28;20501;-69